Time;durP1;ratioP1;P1;durP2;ratioP2;P2;SDS_P1;SDS_P2;PMS_P1;PMS_P2;Temp;Humidity;BMP_temperature;BMP_pressure;BME280_temperature;BME280_humidity;BME280_pressure;Samples;Min_cycle;Max_cycle;Signal;HPM_P1;HPM_P2
2021/07/22 00:00:44;;;;;;;12.40;6.80;;;18.80;99.90;;;;;;5062151;28;20413;-84
2021/07/22 00:03:32;;;;;;;12.07;6.85;;;18.90;99.90;;;;;;5057313;28;20048;-85
2021/07/22 00:06:21;;;;;;;11.73;6.80;;;18.80;99.90;;;;;;5067758;28;20538;-85
2021/07/22 00:09:08;;;;;;;12.40;7.15;;;18.80;99.90;;;;;;5063535;28;20482;-84
2021/07/22 00:11:55;;;;;;;11.73;6.90;;;18.70;99.90;;;;;;5065366;28;20036;-84
2021/07/22 00:14:42;;;;;;;11.70;6.70;;;18.70;99.90;;;;;;5074849;28;20095;-84
2021/07/22 00:17:30;;;;;;;12.25;7.07;;;18.60;99.90;;;;;;5066077;28;20048;-85
2021/07/22 00:20:17;;;;;;;15.60;7.68;;;18.60;99.90;;;;;;5068784;28;20053;-84
2021/07/22 00:23:06;;;;;;;11.23;6.88;;;18.60;99.90;;;;;;5066268;28;20044;-84
2021/07/22 00:25:53;;;;;;;12.57;7.32;;;18.50;99.90;;;;;;5076147;28;20106;-86
2021/07/22 00:28:40;;;;;;;13.88;7.00;;;18.60;99.90;;;;;;5074889;28;20131;-85
2021/07/22 00:31:27;;;;;;;13.38;7.20;;;18.60;99.90;;;;;;5059505;28;20036;-85
2021/07/22 00:34:14;;;;;;;11.82;6.78;;;18.60;99.90;;;;;;5057137;28;20519;-83
2021/07/22 00:37:02;;;;;;;13.30;7.55;;;18.60;99.90;;;;;;5072180;28;20115;-83
2021/07/22 00:39:50;;;;;;;11.27;6.68;;;18.70;99.90;;;;;;5078795;28;20069;-83
2021/07/22 00:42:56;;;;;;;11.25;6.65;;;18.60;99.90;;;;;;5069459;28;20054;-84
2021/07/22 00:45:44;;;;;;;11.55;6.95;;;18.60;99.90;;;;;;5081789;28;20045;-85
2021/07/22 00:48:31;;;;;;;13.25;7.35;;;18.70;99.90;;;;;;5057925;28;20044;-85
2021/07/22 00:51:18;;;;;;;13.40;7.05;;;18.70;99.90;;;;;;5080214;28;20430;-84
2021/07/22 00:54:06;;;;;;;12.32;6.57;;;18.70;99.90;;;;;;5067463;28;20500;-84
2021/07/22 00:56:54;;;;;;;11.88;7.00;;;18.70;99.90;;;;;;5078501;28;20054;-83
2021/07/22 00:59:41;;;;;;;12.20;6.63;;;18.70;99.90;;;;;;5070751;28;20510;-84
2021/07/22 01:02:28;;;;;;;11.38;6.45;;;18.60;99.90;;;;;;5065201;28;20055;-85
2021/07/22 01:05:16;;;;;;;11.20;6.30;;;18.60;99.90;;;;;;5071420;28;20040;-83
2021/07/22 01:08:03;;;;;;;11.80;7.03;;;19.70;99.90;;;;;;5057965;28;20122;-84
2021/07/22 01:10:51;;;;;;;11.13;6.82;;;18.50;99.90;;;;;;5050604;28;20044;-84
2021/07/22 01:13:39;;;;;;;16.33;6.72;;;18.50;99.90;;;;;;5072166;28;20142;-82
2021/07/22 01:16:26;;;;;;;12.10;6.85;;;18.50;99.90;;;;;;5061243;28;20040;-84
2021/07/22 01:19:14;;;;;;;10.73;6.53;;;18.60;99.90;;;;;;5052666;28;20048;-83
2021/07/22 01:22:02;;;;;;;12.50;6.78;;;18.60;99.90;;;;;;5051611;28;20041;-82
2021/07/22 01:24:49;;;;;;;10.88;6.63;;;18.60;99.90;;;;;;5061794;28;20396;-83
2021/07/22 01:27:36;;;;;;;11.95;6.45;;;18.50;99.90;;;;;;5057988;28;20414;-82
2021/07/22 01:30:24;;;;;;;10.82;6.50;;;18.50;99.90;;;;;;5061908;28;20044;-83
2021/07/22 01:33:11;;;;;;;11.35;7.10;;;18.50;99.90;;;;;;5073085;28;20047;-85
2021/07/22 01:35:58;;;;;;;14.43;7.15;;;18.50;99.90;;;;;;5061479;28;20072;-83
2021/07/22 01:38:46;;;;;;;11.73;6.28;;;18.40;99.90;;;;;;5058232;28;20247;-83
2021/07/22 01:41:35;;;;;;;12.85;7.50;;;18.50;99.90;;;;;;5053111;28;20127;-84
2021/07/22 01:44:22;;;;;;;10.90;6.57;;;18.50;99.90;;;;;;5056738;28;20072;-82
2021/07/22 01:47:09;;;;;;;13.82;6.93;;;18.40;99.90;;;;;;5047874;28;20052;-85
2021/07/22 01:49:56;;;;;;;12.05;6.82;;;18.40;99.90;;;;;;5072448;28;20048;-84
2021/07/22 01:52:44;;;;;;;12.10;6.78;;;18.40;99.90;;;;;;5065989;28;20087;-82
2021/07/22 01:55:32;;;;;;;10.45;6.70;;;18.40;99.90;;;;;;5071383;28;20037;-85
2021/07/22 01:58:19;;;;;;;12.32;6.68;;;18.40;99.90;;;;;;5057856;28;20516;-83
2021/07/22 02:01:06;;;;;;;12.52;6.50;;;18.50;99.90;;;;;;5069875;28;20514;-83
2021/07/22 02:03:54;;;;;;;10.85;6.63;;;18.50;99.90;;;;;;5069559;28;20118;-84
2021/07/22 02:06:41;;;;;;;13.35;7.30;;;18.40;99.90;;;;;;5058131;28;20148;-84
2021/07/22 02:09:28;;;;;;;12.85;6.47;;;18.30;99.90;;;;;;5056564;28;20149;-84
2021/07/22 02:12:17;;;;;;;12.20;6.88;;;18.40;99.90;;;;;;5054594;28;20638;-84
2021/07/22 02:15:05;;;;;;;10.90;6.63;;;18.40;99.90;;;;;;5055783;28;20082;-83
2021/07/22 02:17:52;;;;;;;11.82;6.65;;;18.30;99.90;;;;;;5056947;28;20050;-84
2021/07/22 02:20:39;;;;;;;13.10;7.43;;;18.20;99.90;;;;;;5071662;28;20052;-84
2021/07/22 02:23:26;;;;;;;12.20;6.22;;;18.20;99.90;;;;;;5062964;28;20043;-84
2021/07/22 02:26:13;;;;;;;12.68;7.63;;;18.10;99.90;;;;;;5069671;28;20681;-84
2021/07/22 02:29:02;;;;;;;14.95;7.57;;;18.00;99.90;;;;;;5057010;28;20050;-83
2021/07/22 02:31:49;;;;;;;14.00;7.17;;;18.00;99.90;;;;;;5069955;28;20041;-83
2021/07/22 02:34:36;;;;;;;11.15;6.70;;;18.00;99.90;;;;;;5067051;28;20120;-84
2021/07/22 02:37:23;;;;;;;11.43;6.78;;;17.80;99.90;;;;;;5056627;28;20040;-84
2021/07/22 02:40:11;;;;;;;13.02;6.75;;;17.80;99.90;;;;;;5056832;28;20041;-83
2021/07/22 02:42:58;;;;;;;12.23;6.85;;;17.80;99.90;;;;;;5055904;28;20044;-84
2021/07/22 02:45:46;;;;;;;13.40;7.10;;;17.70;99.90;;;;;;5055501;28;20048;-83
2021/07/22 02:48:34;;;;;;;12.85;7.25;;;17.60;99.90;;;;;;5055173;28;20515;-84
2021/07/22 02:51:21;;;;;;;12.38;6.85;;;17.60;99.90;;;;;;5075462;28;20041;-84
2021/07/22 02:54:11;;;;;;;13.75;7.22;;;17.50;99.90;;;;;;5071573;28;20036;-84
2021/07/22 02:56:58;;;;;;;12.85;7.07;;;17.50;99.90;;;;;;5068557;28;20496;-83
2021/07/22 02:59:45;;;;;;;13.73;7.07;;;17.40;99.90;;;;;;5060810;28;20051;-83
2021/07/22 03:02:33;;;;;;;13.77;7.43;;;17.40;99.90;;;;;;5070454;28;20523;-83
2021/07/22 03:05:21;;;;;;;11.77;6.97;;;17.40;99.90;;;;;;5073411;28;20523;-84
2021/07/22 03:08:08;;;;;;;15.10;7.20;;;17.40;99.90;;;;;;5071940;28;20466;-83
2021/07/22 03:10:55;;;;;;;11.93;6.82;;;17.40;99.90;;;;;;5054333;28;20610;-83
2021/07/22 03:13:42;;;;;;;14.60;7.38;;;17.40;99.90;;;;;;5055798;28;20048;-82
2021/07/22 03:16:29;;;;;;;15.00;7.05;;;17.40;99.90;;;;;;5052409;28;20037;-83
2021/07/22 03:19:19;;;;;;;13.70;7.13;;;17.40;99.90;;;;;;5052749;28;20048;-84
2021/07/22 03:22:06;;;;;;;12.68;6.75;;;17.30;99.90;;;;;;5078175;28;20672;-84
2021/07/22 03:24:53;;;;;;;11.80;6.43;;;17.30;99.90;;;;;;5061595;28;20047;-84
2021/07/22 03:27:41;;;;;;;11.75;6.55;;;17.30;99.90;;;;;;5055967;28;20055;-85
2021/07/22 03:30:28;;;;;;;12.60;7.45;;;17.30;99.90;;;;;;5050236;28;20041;-83
2021/07/22 03:33:15;;;;;;;10.98;6.75;;;17.30;99.90;;;;;;5061157;28;20048;-84
2021/07/22 03:36:04;;;;;;;13.25;6.95;;;17.20;99.90;;;;;;5073155;28;20036;-84
2021/07/22 03:38:51;;;;;;;11.57;6.70;;;17.30;99.90;;;;;;5076070;28;20134;-83
2021/07/22 03:41:47;;;;;;;10.75;6.53;;;17.20;99.90;;;;;;5059692;28;20048;-84
2021/07/22 03:44:35;;;;;;;13.30;7.22;;;17.20;99.90;;;;;;5059598;28;20043;-84
2021/07/22 03:47:22;;;;;;;12.48;6.93;;;17.10;99.90;;;;;;5056101;28;20051;-85
2021/07/22 03:50:09;;;;;;;14.55;7.63;;;17.10;99.90;;;;;;5074492;28;20051;-84
2021/07/22 03:52:58;;;;;;;12.32;7.35;;;17.20;99.90;;;;;;5062027;28;20040;-84
2021/07/22 03:55:45;;;;;;;12.57;7.20;;;17.20;99.90;;;;;;5059279;28;20040;-85
2021/07/22 03:58:32;;;;;;;12.93;7.05;;;17.20;99.90;;;;;;5070359;28;20045;-84
2021/07/22 04:01:19;;;;;;;13.18;6.68;;;17.20;99.90;;;;;;5058463;28;20059;-85
2021/07/22 04:04:06;;;;;;;16.27;7.10;;;17.10;99.90;;;;;;5071254;28;20171;-83
2021/07/22 04:06:53;;;;;;;12.35;6.65;;;17.10;99.90;;;;;;5057951;28;20040;-84
2021/07/22 04:09:41;;;;;;;11.15;6.75;;;17.20;99.90;;;;;;5074366;28;20112;-84
2021/07/22 04:12:29;;;;;;;13.60;7.68;;;17.10;99.90;;;;;;5060783;28;20483;-84
2021/07/22 04:15:16;;;;;;;10.90;6.47;;;17.10;99.90;;;;;;5060539;28;20041;-85
2021/07/22 04:18:03;;;;;;;14.07;6.70;;;17.10;99.90;;;;;;5080467;28;20044;-83
2021/07/22 04:20:50;;;;;;;12.77;6.93;;;17.00;99.90;;;;;;5068893;28;20040;-83
2021/07/22 04:23:37;;;;;;;15.93;7.45;;;17.00;99.90;;;;;;5077618;28;20123;-84
2021/07/22 04:26:26;;;;;;;16.10;7.55;;;17.10;99.90;;;;;;5071944;28;20036;-84
2021/07/22 04:29:13;;;;;;;15.05;7.30;;;17.10;99.90;;;;;;5054827;28;20053;-84
2021/07/22 04:32:01;;;;;;;12.55;7.57;;;17.20;99.90;;;;;;5059521;28;20086;-83
2021/07/22 04:34:48;;;;;;;17.38;8.95;;;17.20;99.90;;;;;;5080296;28;20089;-86
2021/07/22 04:37:35;;;;;;;13.50;7.78;;;17.30;99.90;;;;;;5083957;28;20388;-85
2021/07/22 04:40:22;;;;;;;14.00;7.20;;;17.40;99.90;;;;;;5077545;28;20036;-84
2021/07/22 04:43:10;;;;;;;17.30;7.53;;;17.50;99.90;;;;;;5077430;28;20104;-85
2021/07/22 04:46:00;;;;;;;11.38;6.78;;;17.50;99.90;;;;;;5066488;28;20049;-84
2021/07/22 04:48:48;;;;;;;13.15;6.90;;;17.50;99.90;;;;;;5081508;28;20052;-85
2021/07/22 04:51:35;;;;;;;14.30;8.35;;;17.50;99.90;;;;;;5054558;28;20127;-85
2021/07/22 04:54:22;;;;;;;14.60;8.77;;;17.60;99.90;;;;;;5089264;28;20040;-85
2021/07/22 04:57:09;;;;;;;17.35;10.13;;;17.70;99.90;;;;;;5062636;28;20037;-85
2021/07/22 04:59:58;;;;;;;17.88;9.55;;;17.70;99.90;;;;;;5065846;28;20036;-84
2021/07/22 05:02:45;;;;;;;20.92;10.50;;;17.80;99.90;;;;;;5066965;28;20115;-84
2021/07/22 05:05:36;;;;;;;15.00;9.90;;;17.80;99.90;;;;;;5060547;28;20036;-86
2021/07/22 05:08:23;;;;;;;16.40;9.77;;;17.80;99.90;;;;;;5061793;28;20514;-85
2021/07/22 05:11:10;;;;;;;16.42;10.10;;;17.90;99.90;;;;;;5074597;28;20294;-85
2021/07/22 05:13:57;;;;;;;17.40;9.73;;;18.00;99.90;;;;;;5070087;28;20402;-86
2021/07/22 05:16:45;;;;;;;20.73;10.82;;;18.10;99.90;;;;;;5060299;28;20104;-85
2021/07/22 05:19:33;;;;;;;16.23;9.70;;;18.20;99.90;;;;;;5084727;28;20158;-84
2021/07/22 05:22:21;;;;;;;18.33;10.57;;;18.00;99.90;;;;;;5091601;28;20049;-84
2021/07/22 05:25:09;;;;;;;16.20;9.20;;;18.20;99.90;;;;;;5054881;28;20050;-84
2021/07/22 05:27:56;;;;;;;18.15;9.73;;;18.30;99.90;;;;;;5053431;28;20044;-83
2021/07/22 05:30:44;;;;;;;17.40;10.20;;;18.40;99.90;;;;;;5053314;28;20049;-84
2021/07/22 05:33:32;;;;;;;20.70;10.70;;;18.50;99.90;;;;;;5059303;28;20117;-83
2021/07/22 05:36:19;;;;;;;15.43;9.75;;;18.60;99.90;;;;;;5073356;28;20041;-83
2021/07/22 05:39:06;;;;;;;17.40;8.80;;;18.70;99.90;;;;;;5058774;28;20130;-85
2021/07/22 05:41:56;;;;;;;16.90;10.57;;;18.80;99.90;;;;;;5057774;28;20040;-86
2021/07/22 05:44:44;;;;;;;17.05;10.18;;;18.70;99.90;;;;;;5055198;28;20427;-84
2021/07/22 05:47:31;;;;;;;19.17;9.90;;;18.40;99.90;;;;;;5071813;28;20143;-85
2021/07/22 05:50:19;;;;;;;20.98;11.60;;;18.30;99.90;;;;;;5069361;28;20051;-84
2021/07/22 05:53:06;;;;;;;18.80;10.95;;;18.30;99.90;;;;;;5053710;28;20127;-85
2021/07/22 05:55:56;;;;;;;19.35;10.95;;;18.50;99.90;;;;;;5056363;28;20043;-85
2021/07/22 05:58:44;;;;;;;16.60;10.63;;;18.60;99.90;;;;;;5072522;28;20625;-84
2021/07/22 06:01:31;;;;;;;17.98;10.85;;;18.60;99.90;;;;;;5071510;28;20046;-84
2021/07/22 06:04:19;;;;;;;18.83;11.00;;;18.60;99.90;;;;;;5068071;28;20047;-83
2021/07/22 06:07:07;;;;;;;18.33;11.65;;;18.50;99.90;;;;;;5050145;28;20040;-85
2021/07/22 06:09:54;;;;;;;17.02;9.57;;;18.50;99.90;;;;;;5074310;28;20341;-84
2021/07/22 06:12:42;;;;;;;17.67;10.75;;;18.30;99.90;;;;;;5054770;28;20534;-85
2021/07/22 06:15:33;;;;;;;18.48;11.55;;;18.40;99.90;;;;;;5070934;28;20047;-84
2021/07/22 06:18:20;;;;;;;23.35;12.45;;;18.30;99.90;;;;;;5049643;28;20126;-84
2021/07/22 06:21:12;;;;;;;22.33;12.88;;;18.20;99.90;;;;;;5067025;28;20460;-84
2021/07/22 06:24:01;;;;;;;21.88;12.57;;;18.30;99.90;;;;;;5056870;28;20131;-84
2021/07/22 06:26:48;;;;;;;21.13;13.60;;;18.20;99.90;;;;;;5059598;28;20051;-83
2021/07/22 06:29:35;;;;;;;20.92;12.13;;;18.20;99.90;;;;;;5056873;28;20050;-84
2021/07/22 06:32:22;;;;;;;19.10;11.93;;;18.10;99.90;;;;;;5059663;28;20052;-84
2021/07/22 06:35:09;;;;;;;20.83;12.55;;;17.90;99.90;;;;;;5063408;28;20036;-84
2021/07/22 06:37:56;;;;;;;21.85;13.10;;;17.80;99.90;;;;;;5057894;28;20539;-84
2021/07/22 06:40:45;;;;;;;19.60;12.18;;;17.50;99.90;;;;;;5078569;28;20066;-84
2021/07/22 06:43:32;;;;;;;22.63;13.10;;;17.60;99.90;;;;;;5068150;28;20055;-84
2021/07/22 06:46:19;;;;;;;22.15;13.10;;;17.70;99.90;;;;;;5071779;28;20037;-84
2021/07/22 06:49:07;;;;;;;20.05;12.18;;;17.50;99.90;;;;;;5073108;28;20037;-85
2021/07/22 06:51:54;;;;;;;18.85;11.60;;;17.60;99.90;;;;;;5063252;28;20138;-84
2021/07/22 06:54:41;;;;;;;21.30;11.88;;;17.70;99.90;;;;;;5052538;28;20055;-84
2021/07/22 06:57:29;;;;;;;18.95;11.70;;;17.70;99.90;;;;;;5074647;28;20048;-84
2021/07/22 07:00:16;;;;;;;17.95;11.38;;;17.70;99.90;;;;;;5081323;28;20047;-83
2021/07/22 07:03:04;;;;;;;20.13;11.88;;;17.70;99.90;;;;;;5055679;28;20419;-84
2021/07/22 07:05:52;;;;;;;20.92;11.15;;;17.70;99.90;;;;;;5056995;28;20047;-84
2021/07/22 07:08:39;;;;;;;21.58;12.48;;;17.70;99.90;;;;;;5070660;28;20041;-85
2021/07/22 07:11:26;;;;;;;23.25;12.65;;;17.70;99.90;;;;;;5062270;28;20043;-83
2021/07/22 07:14:15;;;;;;;22.40;12.63;;;17.60;99.90;;;;;;5077641;28;20132;-85
2021/07/22 07:17:02;;;;;;;23.00;12.30;;;17.50;99.90;;;;;;5053663;28;20043;-84
2021/07/22 07:19:49;;;;;;;26.05;13.15;;;17.40;99.90;;;;;;5046322;28;20162;-84
2021/07/22 07:22:36;;;;;;;21.58;12.68;;;17.40;99.90;;;;;;5061704;28;20255;-83
2021/07/22 07:25:24;;;;;;;18.92;11.55;;;17.40;99.90;;;;;;5062445;28;20047;-85
2021/07/22 07:28:11;;;;;;;25.45;12.60;;;17.60;99.90;;;;;;5066729;28;20052;-85
2021/07/22 07:30:59;;;;;;;23.63;12.18;;;17.60;99.90;;;;;;5058090;28;20500;-83
2021/07/22 07:33:46;;;;;;;21.65;12.07;;;17.60;99.90;;;;;;5051185;28;20287;-84
2021/07/22 07:36:33;;;;;;;20.42;12.05;;;17.60;99.90;;;;;;5055671;28;20116;-85
2021/07/22 07:39:21;;;;;;;20.75;11.82;;;17.70;99.90;;;;;;5055133;28;20131;-84
2021/07/22 07:42:08;;;;;;;20.02;11.73;;;17.70;99.90;;;;;;5058857;28;20124;-84
2021/07/22 07:44:55;;;;;;;17.88;10.85;;;17.70;99.90;;;;;;5074477;28;20053;-85
2021/07/22 07:47:45;;;;;;;18.88;11.27;;;17.90;99.90;;;;;;5072584;28;20106;-84
2021/07/22 07:50:32;;;;;;;18.77;10.82;;;17.90;99.90;;;;;;5062904;28;20044;-84
2021/07/22 07:53:20;;;;;;;21.40;11.13;;;17.90;99.90;;;;;;5059280;28;20131;-84
2021/07/22 07:56:07;;;;;;;18.48;11.05;;;18.00;99.90;;;;;;5073913;28;20066;-84
2021/07/22 07:58:54;;;;;;;21.55;11.75;;;18.10;99.90;;;;;;5080800;28;20044;-85
2021/07/22 08:01:41;;;;;;;17.35;9.80;;;18.00;99.90;;;;;;5056063;28;20044;-85
2021/07/22 08:04:29;;;;;;;16.88;9.98;;;18.20;99.90;;;;;;5057520;28;20056;-85
2021/07/22 08:07:16;;;;;;;16.50;10.60;;;18.40;99.90;;;;;;5059528;28;20055;-84
2021/07/22 08:10:04;;;;;;;16.55;10.60;;;18.50;99.90;;;;;;5056558;28;20059;-85
2021/07/22 08:12:53;;;;;;;18.02;11.00;;;18.60;99.90;;;;;;5055233;28;20040;-83
2021/07/22 08:15:41;;;;;;;17.85;10.30;;;18.70;99.90;;;;;;5060485;28;20036;-84
2021/07/22 08:18:28;;;;;;;20.10;10.47;;;18.90;99.90;;;;;;5056252;28;20131;-84
2021/07/22 08:21:17;;;;;;;19.02;10.40;;;18.60;99.90;;;;;;5060002;28;20048;-85
2021/07/22 08:24:04;;;;;;;16.70;10.70;;;18.70;99.90;;;;;;5044791;28;20045;-84
2021/07/22 08:26:52;;;;;;;16.40;10.30;;;18.70;99.90;;;;;;5077719;28;20090;-83
2021/07/22 08:29:39;;;;;;;18.45;11.70;;;18.60;99.90;;;;;;5059899;28;20189;-85
2021/07/22 08:32:27;;;;;;;17.77;11.23;;;18.60;99.90;;;;;;5073809;28;20063;-84
2021/07/22 08:35:14;;;;;;;21.42;11.10;;;18.70;99.90;;;;;;5066013;28;20052;-83
2021/07/22 08:38:03;;;;;;;17.48;10.23;;;18.80;99.90;;;;;;5077522;28;20555;-83
2021/07/22 08:40:50;;;;;;;17.67;10.93;;;18.60;99.90;;;;;;5071305;28;20130;-84
2021/07/22 08:43:38;;;;;;;17.60;10.57;;;18.60;99.90;;;;;;5061749;28;20537;-84
2021/07/22 08:46:25;;;;;;;16.80;10.70;;;18.80;99.90;;;;;;5059566;28;20538;-85
2021/07/22 08:49:12;;;;;;;21.40;11.45;;;19.00;99.90;;;;;;5073096;28;20064;-85
2021/07/22 08:52:01;;;;;;;18.42;10.43;;;19.00;99.90;;;;;;5057504;28;20045;-85
2021/07/22 08:54:49;;;;;;;19.57;10.20;;;19.10;99.90;;;;;;5055903;28;20052;-85
2021/07/22 08:57:38;;;;;;;19.45;10.88;;;19.30;99.90;;;;;;5057639;28;20174;-83
2021/07/22 09:00:29;;;;;;;15.98;9.43;;;19.50;99.90;;;;;;5070657;28;20175;-86
2021/07/22 09:03:16;;;;;;;16.65;10.15;;;19.70;99.90;;;;;;5086417;28;20178;-86
2021/07/22 09:06:12;;;;;;;18.05;10.00;;;19.80;99.90;;;;;;5059525;28;20040;-85
2021/07/22 09:09:11;;;;;;;16.52;9.98;;;19.90;99.90;;;;;;5052056;28;20048;-85
2021/07/22 09:12:01;;;;;;;18.15;10.55;;;20.20;99.90;;;;;;5071730;28;20559;-85
2021/07/22 09:14:57;;;;;;;17.00;9.77;;;20.50;99.90;;;;;;5071827;28;20080;-84
2021/07/22 09:18:19;;;;;;;15.90;9.55;;;20.50;99.90;;;;;;5067403;28;20047;-85
2021/07/22 09:21:22;;;;;;;20.98;11.35;;;20.60;99.90;;;;;;5049612;28;20052;-85
2021/07/22 09:24:10;;;;;;;17.77;11.63;;;20.60;99.90;;;;;;5078359;28;20047;-85
2021/07/22 09:26:59;;;;;;;19.08;10.88;;;20.50;99.90;;;;;;5060664;28;20044;-84
2021/07/22 09:29:57;;;;;;;15.65;10.48;;;20.20;99.90;;;;;;5066402;28;20143;-84
2021/07/22 09:32:47;;;;;;;19.05;10.38;;;20.40;99.90;;;;;;5055156;28;20173;-84
2021/07/22 09:35:36;;;;;;;17.70;11.00;;;20.60;99.90;;;;;;5070431;28;20062;-84
2021/07/22 09:38:25;;;;;;;21.70;10.83;;;20.50;99.90;;;;;;5050286;28;20040;-82
2021/07/22 09:41:17;;;;;;;18.05;10.13;;;20.40;99.90;;;;;;5053659;28;20721;-85
2021/07/22 09:44:06;;;;;;;15.27;9.07;;;20.50;99.90;;;;;;5071540;28;20127;-84
2021/07/22 09:46:53;;;;;;;17.13;10.93;;;20.50;99.90;;;;;;5044559;28;20040;-83
2021/07/22 09:49:41;;;;;;;17.98;10.98;;;20.60;99.90;;;;;;5058437;28;20173;-83
2021/07/22 09:52:28;;;;;;;16.67;10.70;;;20.40;99.90;;;;;;5047995;28;20052;-81
2021/07/22 09:55:27;;;;;;;16.83;10.75;;;20.30;99.90;;;;;;5052745;28;20515;-83
2021/07/22 09:58:14;;;;;;;17.50;10.98;;;20.20;99.90;;;;;;5054013;28;20043;-84
2021/07/22 10:01:03;;;;;;;18.20;10.23;;;20.20;99.90;;;;;;5054103;28;20385;-81
2021/07/22 10:03:51;;;;;;;18.70;11.40;;;20.10;99.90;;;;;;5049172;28;20512;-83
2021/07/22 10:06:44;;;;;;;19.27;11.73;;;19.80;99.90;;;;;;5061122;28;20055;-85
2021/07/22 10:09:34;;;;;;;16.90;9.30;;;20.10;99.90;;;;;;5061562;28;20056;-84
2021/07/22 10:12:22;;;;;;;;;;;20.20;99.90;;;;;;5058207;28;20182;-82
2021/07/22 10:15:09;;;;;;;19.23;10.43;;;20.30;99.90;;;;;;5053280;28;20027;-84
2021/07/22 10:18:00;;;;;;;18.02;10.50;;;20.10;99.90;;;;;;5056317;28;20045;-84
2021/07/22 10:20:52;;;;;;;18.50;10.45;;;20.30;99.90;;;;;;5065767;28;20045;-84
2021/07/22 10:23:40;;;;;;;19.38;10.88;;;20.40;99.90;;;;;;5073877;28;20432;-84
2021/07/22 10:26:27;;;;;;;16.58;10.10;;;20.50;99.90;;;;;;5050404;28;20044;-82
2021/07/22 10:29:14;;;;;;;19.55;9.55;;;20.70;99.90;;;;;;5053447;28;20488;-85
2021/07/22 10:32:02;;;;;;;19.23;11.05;;;20.90;99.90;;;;;;5067976;28;20523;-83
2021/07/22 10:34:53;;;;;;;20.85;11.43;;;21.10;99.90;;;;;;5051811;28;20037;-84
2021/07/22 10:38:02;;;;;;;15.98;10.05;;;21.00;99.90;;;;;;5044897;28;20097;-84
2021/07/22 10:40:54;;;;;;;16.50;10.32;;;21.20;99.90;;;;;;5055984;28;20060;-83
2021/07/22 10:43:42;;;;;;;18.67;11.18;;;21.20;99.90;;;;;;5064371;28;20174;-84
2021/07/22 10:46:52;;;;;;;18.02;8.95;;;21.20;99.90;;;;;;5069561;28;20100;-84
2021/07/22 10:49:41;;;;;;;19.20;10.35;;;21.40;99.90;;;;;;5066768;28;20048;-83
2021/07/22 10:53:01;;;;;;;16.33;9.75;;;21.20;99.90;;;;;;5045228;28;20080;-85
2021/07/22 10:55:49;;;;;;;18.17;9.52;;;21.30;99.90;;;;;;5056155;28;20108;-82
2021/07/22 10:58:54;;;;;;;15.80;9.10;;;21.60;99.90;;;;;;5052386;28;20503;-84
2021/07/22 11:01:53;;;;;;;16.83;9.82;;;21.90;99.90;;;;;;5071940;28;20064;-84
2021/07/22 11:04:42;;;;;;;16.20;8.90;;;22.10;99.90;;;;;;5051647;28;20532;-83
2021/07/22 11:07:29;;;;;;;19.17;9.93;;;22.30;99.90;;;;;;5072111;28;20045;-84
2021/07/22 11:10:54;;;;;;;15.80;9.20;;;22.30;99.90;;;;;;5053168;28;20040;-85
2021/07/22 11:13:46;;;;;;;16.33;9.88;;;22.60;99.90;;;;;;5056721;28;20109;-85
2021/07/22 11:16:58;;;;;;;15.50;9.20;;;22.70;99.90;;;;;;5053762;28;20070;-84
2021/07/22 11:20:24;;;;;;;17.73;9.55;;;23.10;99.90;;;;;;5070159;28;20040;-84
2021/07/22 11:23:15;;;;;;;14.95;9.60;;;23.20;99.90;;;;;;5066304;28;20051;-85
2021/07/22 11:26:03;;;;;;;19.65;10.40;;;23.30;99.90;;;;;;5073445;28;20561;-86
2021/07/22 11:28:50;;;;;;;15.82;9.32;;;23.30;99.90;;;;;;5052874;28;20515;-84
2021/07/22 11:31:38;;;;;;;16.98;9.60;;;23.30;99.90;;;;;;5054007;28;20049;-86
2021/07/22 11:34:28;;;;;;;14.68;9.20;;;23.50;99.90;;;;;;5056136;28;20036;-81
2021/07/22 11:37:17;;;;;;;14.52;9.05;;;23.80;99.50;;;;;;5070849;28;20186;-85
2021/07/22 11:40:06;;;;;;;;;;;24.00;99.70;;;;;;5077441;28;20103;-83
2021/07/22 11:42:53;;;;;;;14.07;8.68;;;24.00;98.40;;;;;;5054527;28;20292;-86
2021/07/22 11:45:42;;;;;;;16.58;9.50;;;24.00;98.80;;;;;;5060340;28;20091;-86
2021/07/22 11:48:29;;;;;;;17.08;9.05;;;24.00;99.10;;;;;;5069087;28;20072;-85
2021/07/22 11:51:17;;;;;;;13.98;8.95;;;24.20;98.70;;;;;;5056951;28;20504;-85
2021/07/22 11:54:05;;;;;;;15.30;9.32;;;24.20;98.70;;;;;;5074651;28;20411;-86
2021/07/22 11:56:58;;;;;;;15.55;9.35;;;23.80;99.10;;;;;;5059919;28;20424;-86
2021/07/22 11:59:45;;;;;;;16.83;9.90;;;23.50;99.40;;;;;;5056050;28;20049;-86
2021/07/22 12:02:32;;;;;;;15.35;8.80;;;23.00;99.30;;;;;;5063627;28;20044;-86
2021/07/22 12:05:23;;;;;;;14.02;8.18;;;22.90;99.90;;;;;;5051759;28;20118;-84
2021/07/22 12:08:15;;;;;;;22.38;9.75;;;22.70;99.90;;;;;;5072247;28;20041;-84
2021/07/22 12:11:04;;;;;;;17.55;10.20;;;22.60;99.90;;;;;;5059221;28;20079;-84
2021/07/22 12:13:52;;;;;;;15.40;9.80;;;22.50;99.90;;;;;;5055607;28;20041;-84
2021/07/22 12:16:40;;;;;;;18.20;9.10;;;22.70;99.90;;;;;;5059082;28;20483;-85
2021/07/22 12:19:29;;;;;;;16.73;9.70;;;22.70;99.90;;;;;;5069836;28;20467;-84
2021/07/22 12:22:27;;;;;;;17.98;10.05;;;22.80;99.90;;;;;;5062527;28;20041;-85
2021/07/22 12:25:16;;;;;;;16.95;9.18;;;23.10;99.90;;;;;;5058370;28;20048;-86
2021/07/22 12:28:09;;;;;;;17.50;8.93;;;23.20;99.50;;;;;;5072105;28;20456;-86
2021/07/22 12:31:14;;;;;;;16.95;9.70;;;23.20;99.90;;;;;;5057708;28;20040;-86
2021/07/22 12:34:02;;;;;;;15.80;8.82;;;23.30;99.20;;;;;;5059467;28;20040;-86
2021/07/22 12:36:51;;;;;;;15.27;8.32;;;23.70;99.40;;;;;;5066395;28;20043;-86
2021/07/22 12:39:39;;;;;;;17.70;8.47;;;24.20;98.90;;;;;;5056329;28;20066;-85
2021/07/22 12:42:28;;;;;;;12.80;7.32;;;24.60;97.80;;;;;;5077544;28;20282;-84
2021/07/22 12:45:15;;;;;;;15.73;8.63;;;24.30;99.10;;;;;;5082786;28;20160;-85
2021/07/22 12:48:03;;;;;;;16.70;8.02;;;23.60;98.80;;;;;;5062081;28;20037;-84
2021/07/22 12:50:50;;;;;;;15.45;7.93;;;23.40;99.10;;;;;;5071230;28;20518;-86
2021/07/22 12:53:38;;;;;;;16.38;8.38;;;23.40;99.10;;;;;;5074347;28;20091;-86
2021/07/22 12:56:27;;;;;;;13.10;7.68;;;23.50;99.30;;;;;;5060244;28;20082;-85
2021/07/22 12:59:16;;;;;;;13.95;7.70;;;23.80;99.30;;;;;;5064343;28;20115;-83
2021/07/22 13:02:03;;;;;;;12.82;8.13;;;24.00;99.10;;;;;;5048790;28;20045;-86
2021/07/22 13:04:50;;;;;;;16.70;8.43;;;23.90;98.40;;;;;;5052099;28;20055;-86
2021/07/22 13:07:37;;;;;;;13.38;7.78;;;23.90;98.30;;;;;;5053917;28;20489;-84
2021/07/22 13:10:25;;;;;;;14.63;8.80;;;24.10;98.40;;;;;;5068331;28;20047;-83
2021/07/22 13:13:16;;;;;;;12.43;7.00;;;24.30;97.90;;;;;;5052360;28;20048;-84
2021/07/22 13:18:39;;;;;;;16.27;8.55;;;24.30;98.30;;;;;;5019440;28;20045;-86
2021/07/22 13:21:27;;;;;;;13.25;7.68;;;24.00;98.30;;;;;;5012145;28;20074;-85
2021/07/22 13:24:14;;;;;;;14.05;7.35;;;23.90;98.40;;;;;;5018658;28;20049;-86
2021/07/22 13:27:01;;;;;;;11.55;7.53;;;24.00;99.40;;;;;;5027364;28;20047;-85
2021/07/22 13:29:48;;;;;;;14.27;7.88;;;24.00;98.40;;;;;;5026739;28;20045;-84
2021/07/22 13:32:36;;;;;;;15.07;8.30;;;24.10;97.90;;;;;;5018773;28;20045;-85
2021/07/22 13:35:33;;;;;;;12.43;7.40;;;23.90;98.20;;;;;;5025886;28;20041;-86
2021/07/22 13:38:31;;;;;;;13.13;8.20;;;23.70;98.70;;;;;;5035542;28;20102;-87
2021/07/22 13:41:19;;;;;;;14.90;7.82;;;23.80;98.80;;;;;;5026280;28;20090;-86
2021/07/22 13:44:06;;;;;;;13.77;7.80;;;24.00;98.40;;;;;;5015251;28;20184;-86
2021/07/22 13:46:53;;;;;;;13.15;7.95;;;24.00;98.20;;;;;;5017745;28;20107;-86
2021/07/22 13:49:40;;;;;;;13.20;7.38;;;23.90;98.60;;;;;;5021447;28;20105;-85
2021/07/22 13:52:29;;;;;;;12.57;8.38;;;25.00;99.80;;;;;;5023379;28;20247;-87
2021/07/22 13:55:17;;;;;;;16.27;7.85;;;24.00;99.30;;;;;;5020292;28;20109;-84
2021/07/22 13:58:04;;;;;;;13.98;8.35;;;24.00;98.40;;;;;;5014114;28;20052;-84
2021/07/22 14:00:51;;;;;;;16.05;8.75;;;24.00;98.10;;;;;;5017055;28;20441;-85
2021/07/22 14:03:38;;;;;;;12.75;8.05;;;23.90;98.30;;;;;;5026659;28;20053;-86
2021/07/22 14:06:26;;;;;;;13.30;7.88;;;23.90;98.60;;;;;;5019638;28;20044;-84
2021/07/22 14:09:14;;;;;;;14.77;7.53;;;26.20;98.90;;;;;;5031842;28;20053;-86
2021/07/22 14:12:01;;;;;;;14.77;8.23;;;24.10;97.80;;;;;;5011224;28;20088;-84
2021/07/22 14:14:49;;;;;;;12.55;8.10;;;23.90;98.30;;;;;;5013556;28;20297;-84
2021/07/22 14:17:36;;;;;;;12.68;7.63;;;24.30;98.50;;;;;;5013524;28;20523;-84
2021/07/22 14:20:23;;;;;;;12.43;7.90;;;24.70;98.20;;;;;;5023942;28;20167;-85
2021/07/22 14:23:11;;;;;;;13.10;7.30;;;24.80;97.80;;;;;;5024056;28;20106;-86
2021/07/22 14:25:59;;;;;;;12.10;7.50;;;24.90;97.50;;;;;;5021324;28;20104;-86